createdAt,value
2019-04-26T17:52:06.714Z,101378.56
2019-04-26T17:54:46.327Z,101373.38
2019-04-26T17:57:08.863Z,101371.64
2019-04-26T17:59:45.249Z,101369.44
2019-04-26T18:02:20.579Z,101369.83
2019-04-26T18:04:43.507Z,101374.85
2019-04-26T18:07:37.545Z,101376.73
2019-04-26T18:09:46.839Z,101380.73
2019-04-26T18:12:16.477Z,101392.98
2019-04-26T18:14:45.946Z,101396.59
2019-04-26T18:17:24.963Z,101405.16
2019-04-26T18:20:05.115Z,101405.77
2019-04-26T18:22:42.808Z,101411.77
2019-04-26T18:25:13.064Z,101412.52
2019-04-26T18:27:43.631Z,101411.74
2019-04-26T18:30:14.362Z,101414.87
2019-04-26T18:32:47.679Z,101421.34
2019-04-26T18:35:16.869Z,101422.56
2019-04-26T18:37:46.469Z,101422.16
2019-04-26T18:40:16.048Z,101427.98
2019-04-26T18:42:45.487Z,101426.95
2019-04-26T18:45:21.233Z,101426.07
2019-04-26T18:47:46.200Z,101428.55
2019-04-26T18:50:16.170Z,101442.39
2019-04-26T18:52:59.894Z,101435.38
2019-04-26T18:55:31.147Z,101433.89
2019-04-26T18:58:03.376Z,101423.63
2019-04-26T19:00:36.262Z,101422.34
2019-04-26T19:03:05.843Z,101426.23
2019-04-26T19:05:35.524Z,101427.95
2019-04-26T19:08:07.538Z,101429.96
2019-04-26T19:10:38.754Z,101437.30
2019-04-26T19:13:25.279Z,101436.92
2019-04-26T19:16:01.202Z,101434.95
2019-04-26T19:18:47.143Z,101438.34
2019-04-26T19:21:38.945Z,101435.91
2019-04-26T19:24:11.670Z,101445.75
2019-04-26T19:26:38.083Z,101438.41
2019-04-26T19:29:16.363Z,101432.30
2019-04-26T19:31:41.270Z,101440.81
2019-04-26T19:34:11.673Z,101433.11
2019-04-26T19:36:42.078Z,101436.78
2019-04-26T19:39:12.111Z,101434.89
2019-04-26T19:41:42.028Z,101428.83
2019-04-26T19:44:14.787Z,101430.17
2019-04-26T19:47:03.258Z,101426.56
2019-04-26T19:49:52.363Z,101434.35
2019-04-26T19:52:23.193Z,101436.52
2019-04-26T19:54:54.348Z,101436.26
2019-04-26T19:57:42.690Z,101434.27
2019-04-26T20:00:13.253Z,101424.86
2019-04-26T20:02:42.760Z,101429.81
2019-04-26T20:05:12.382Z,101433.78
2019-04-26T20:07:41.808Z,101436.23
2019-04-26T20:10:12.861Z,101442.27
2019-04-26T20:12:42.402Z,101436.55
2019-04-26T20:15:25.147Z,101435.58
2019-04-26T20:17:43.025Z,101434.48
2019-04-26T20:20:20.179Z,101424.31
2019-04-26T20:22:43.712Z,101422.29
2019-04-26T20:25:13.241Z,101425.02
2019-04-26T20:27:42.672Z,101427.22
2019-04-26T20:30:32.235Z,101431.44
2019-04-26T20:33:01.851Z,101421.27
2019-04-26T20:35:31.901Z,101411.88
2019-04-26T20:38:04.654Z,101413.11
2019-04-26T20:40:32.537Z,101409.45
2019-04-26T20:43:05.844Z,101414.02
2019-04-26T20:45:41.381Z,101412.30
2019-04-26T20:48:04.290Z,101410.45
2019-04-26T20:50:36.773Z,101406.34
2019-04-26T20:53:05.981Z,101407.35
2019-04-26T20:55:37.064Z,101400.67
2019-04-26T20:58:08.612Z,101402.92
2019-04-26T21:00:38.105Z,101396.23
2019-04-26T21:03:20.131Z,101395.09
2019-04-26T21:05:46.130Z,101396.63
2019-04-26T21:08:09.960Z,101383.04
2019-04-26T21:10:39.541Z,101384.21
2019-04-26T21:13:09.417Z,101382.02
2019-04-26T21:15:51.933Z,101386.44
2019-04-26T21:18:10.076Z,101377.91
2019-04-26T21:20:39.508Z,101376.55
2019-04-26T21:23:09.273Z,101376.97
2019-04-26T21:25:57.019Z,101374.92
2019-04-26T21:28:28.232Z,101368.75
2019-04-26T21:31:08.684Z,101368.04
2019-04-26T21:33:49.177Z,101368.53
2019-04-26T21:36:26.338Z,101363.76
2019-04-26T21:39:07.490Z,101363.50
2019-04-26T21:41:40.410Z,101358.31
2019-04-26T21:44:12.340Z,101361.91
2019-04-26T21:46:40.959Z,101355.77
2019-04-26T21:49:17.070Z,101353.66
2019-04-26T21:51:44.633Z,101342.54
2019-04-26T21:54:14.448Z,101338.86
2019-04-26T21:56:48.566Z,101344.50
2019-04-26T21:59:15.029Z,101340.30
2019-04-26T22:01:48.179Z,101336.68
2019-04-26T22:04:15.699Z,101326.90
2019-04-26T22:06:46.627Z,101322.14
2019-04-26T22:09:21.633Z,101324.11
2019-04-26T22:11:53.997Z,101323.71
2019-04-26T22:14:27.294Z,101323.36
2019-04-26T22:17:02.212Z,101324.59
2019-04-26T22:19:35.340Z,101327.85
2019-04-26T22:22:09.372Z,101325.13
2019-04-26T22:24:40.453Z,101327.67
2019-04-26T22:27:09.906Z,101321.31
2019-04-26T22:29:39.379Z,101314.41
2019-04-26T22:32:11.502Z,101321.09
2019-04-26T22:34:42.700Z,101323.42
2019-04-26T22:37:12.905Z,101321.42
2019-04-26T22:39:44.410Z,101321.86
2019-04-26T22:42:14.808Z,101321.73
2019-04-26T22:44:55.041Z,101317.84
2019-04-26T22:47:26.196Z,101314.75
2019-04-26T22:49:55.765Z,101314.19
2019-04-26T22:52:25.310Z,101308.14
2019-04-26T22:54:55.270Z,101309.56
2019-04-26T22:57:24.707Z,101308.27
2019-04-26T22:59:54.124Z,101303.51
2019-04-26T23:02:27.592Z,101299.70
2019-04-26T23:04:56.097Z,101303.28
2019-04-26T23:07:26.507Z,101306.77
2019-04-26T23:09:55.951Z,101301.52
2019-04-26T23:12:28.255Z,101297.64
2019-04-26T23:14:59.721Z,101295.84
2019-04-26T23:17:43.947Z,101289.86
2019-04-26T23:20:16.825Z,101288.00
2019-04-26T23:22:46.299Z,101287.73
2019-04-26T23:25:15.811Z,101287.00
2019-04-26T23:27:45.209Z,101293.69
2019-04-26T23:30:16.171Z,101288.14
2019-04-26T23:32:48.562Z,101294.02
2019-04-26T23:35:16.799Z,101291.69
2019-04-26T23:37:46.204Z,101295.84
2019-04-26T23:40:15.626Z,101294.61
2019-04-26T23:42:47.553Z,101287.47
2019-04-26T23:45:16.329Z,101290.66
2019-04-26T23:47:45.777Z,101285.90
2019-04-26T23:50:15.228Z,101292.05
2019-04-26T23:52:49.209Z,101278.47
2019-04-26T23:55:15.835Z,101280.72
2019-04-26T23:57:45.304Z,101276.69
